sensor_id;sensor_type;location;lat;lon;timestamp;P1;durP1;ratioP1;P2;durP2;ratioP2
76610;SDS011;65503;48.534;9.062;2023-11-21T00:01:02;6.90;;;2.55;;
76610;SDS011;65503;48.534;9.062;2023-11-21T00:03:30;7.53;;;1.90;;
76610;SDS011;65503;48.534;9.062;2023-11-21T00:05:58;6.70;;;1.80;;
76610;SDS011;65503;48.534;9.062;2023-11-21T00:08:24;5.72;;;1.80;;
76610;SDS011;65503;48.534;9.062;2023-11-21T00:10:51;5.05;;;1.40;;
76610;SDS011;65503;48.534;9.062;2023-11-21T00:13:18;4.72;;;1.80;;
76610;SDS011;65503;48.534;9.062;2023-11-21T00:15:44;3.80;;;1.48;;
76610;SDS011;65503;48.534;9.062;2023-11-21T00:18:11;7.50;;;1.75;;
76610;SDS011;65503;48.534;9.062;2023-11-21T00:20:38;7.60;;;1.70;;
76610;SDS011;65503;48.534;9.062;2023-11-21T00:23:04;8.27;;;2.13;;
76610;SDS011;65503;48.534;9.062;2023-11-21T00:25:31;6.40;;;2.40;;
76610;SDS011;65503;48.534;9.062;2023-11-21T00:27:58;8.15;;;2.58;;
76610;SDS011;65503;48.534;9.062;2023-11-21T00:30:24;8.82;;;2.40;;
76610;SDS011;65503;48.534;9.062;2023-11-21T00:32:51;9.52;;;2.55;;
76610;SDS011;65503;48.534;9.062;2023-11-21T00:35:17;7.95;;;2.25;;
76610;SDS011;65503;48.534;9.062;2023-11-21T00:37:44;7.68;;;2.25;;
76610;SDS011;65503;48.534;9.062;2023-11-21T00:40:11;5.47;;;1.67;;
76610;SDS011;65503;48.534;9.062;2023-11-21T00:42:38;7.53;;;1.67;;
76610;SDS011;65503;48.534;9.062;2023-11-21T00:45:06;8.48;;;2.00;;
76610;SDS011;65503;48.534;9.062;2023-11-21T00:47:33;6.90;;;2.10;;
76610;SDS011;65503;48.534;9.062;2023-11-21T00:49:59;5.30;;;1.85;;
76610;SDS011;65503;48.534;9.062;2023-11-21T00:52:26;6.32;;;1.80;;
76610;SDS011;65503;48.534;9.062;2023-11-21T00:54:53;6.78;;;1.80;;
76610;SDS011;65503;48.534;9.062;2023-11-21T00:57:19;5.07;;;1.80;;
76610;SDS011;65503;48.534;9.062;2023-11-21T00:59:46;7.45;;;1.85;;
76610;SDS011;65503;48.534;9.062;2023-11-21T01:02:12;6.32;;;2.10;;
76610;SDS011;65503;48.534;9.062;2023-11-21T01:04:39;10.73;;;2.10;;
76610;SDS011;65503;48.534;9.062;2023-11-21T01:07:05;6.93;;;1.55;;
76610;SDS011;65503;48.534;9.062;2023-11-21T01:09:32;5.15;;;1.45;;
76610;SDS011;65503;48.534;9.062;2023-11-21T01:11:58;7.13;;;1.40;;
76610;SDS011;65503;48.534;9.062;2023-11-21T01:14:26;8.07;;;2.00;;
76610;SDS011;65503;48.534;9.062;2023-11-21T01:16:53;6.15;;;1.33;;
76610;SDS011;65503;48.534;9.062;2023-11-21T01:19:20;4.55;;;1.40;;
76610;SDS011;65503;48.534;9.062;2023-11-21T01:21:46;5.47;;;1.58;;
76610;SDS011;65503;48.534;9.062;2023-11-21T01:24:13;6.63;;;1.40;;
76610;SDS011;65503;48.534;9.062;2023-11-21T01:26:39;4.55;;;1.45;;
76610;SDS011;65503;48.534;9.062;2023-11-21T01:29:06;4.75;;;1.35;;
76610;SDS011;65503;48.534;9.062;2023-11-21T01:31:33;4.88;;;1.05;;
76610;SDS011;65503;48.534;9.062;2023-11-21T01:33:59;5.15;;;1.20;;
76610;SDS011;65503;48.534;9.062;2023-11-21T01:36:30;3.75;;;1.23;;
76610;SDS011;65503;48.534;9.062;2023-11-21T01:38:58;7.63;;;1.65;;
76610;SDS011;65503;48.534;9.062;2023-11-21T01:41:26;4.10;;;1.27;;
76610;SDS011;65503;48.534;9.062;2023-11-21T01:46:20;2.97;;;1.10;;
76610;SDS011;65503;48.534;9.062;2023-11-21T01:48:48;6.78;;;1.48;;
76610;SDS011;65503;48.534;9.062;2023-11-21T01:51:15;7.03;;;1.40;;
76610;SDS011;65503;48.534;9.062;2023-11-21T01:53:42;3.00;;;1.00;;
76610;SDS011;65503;48.534;9.062;2023-11-21T01:56:10;2.63;;;1.00;;
76610;SDS011;65503;48.534;9.062;2023-11-21T01:58:37;5.55;;;1.10;;
76610;SDS011;65503;48.534;9.062;2023-11-21T02:01:04;6.68;;;1.23;;
76610;SDS011;65503;48.534;9.062;2023-11-21T02:03:31;3.45;;;1.15;;
76610;SDS011;65503;48.534;9.062;2023-11-21T02:05:57;2.35;;;1.00;;
76610;SDS011;65503;48.534;9.062;2023-11-21T02:08:24;5.82;;;1.30;;
76610;SDS011;65503;48.534;9.062;2023-11-21T02:10:51;3.50;;;1.20;;
76610;SDS011;65503;48.534;9.062;2023-11-21T02:13:18;4.55;;;1.40;;
76610;SDS011;65503;48.534;9.062;2023-11-21T02:15:44;4.75;;;1.10;;
76610;SDS011;65503;48.534;9.062;2023-11-21T02:18:11;4.97;;;1.27;;
76610;SDS011;65503;48.534;9.062;2023-11-21T02:20:38;4.47;;;1.13;;
76610;SDS011;65503;48.534;9.062;2023-11-21T02:23:07;4.28;;;1.27;;
76610;SDS011;65503;48.534;9.062;2023-11-21T02:25:34;5.40;;;1.20;;
76610;SDS011;65503;48.534;9.062;2023-11-21T02:28:03;4.28;;;0.90;;
76610;SDS011;65503;48.534;9.062;2023-11-21T02:30:30;6.00;;;1.20;;
76610;SDS011;65503;48.534;9.062;2023-11-21T02:32:59;3.00;;;0.80;;
76610;SDS011;65503;48.534;9.062;2023-11-21T02:35:26;2.30;;;1.00;;
76610;SDS011;65503;48.534;9.062;2023-11-21T02:37:53;3.28;;;1.20;;
76610;SDS011;65503;48.534;9.062;2023-11-21T02:40:20;4.10;;;0.90;;
76610;SDS011;65503;48.534;9.062;2023-11-21T02:42:47;1.83;;;0.98;;
76610;SDS011;65503;48.534;9.062;2023-11-21T02:45:14;2.70;;;1.00;;
76610;SDS011;65503;48.534;9.062;2023-11-21T02:47:43;3.10;;;1.00;;
76610;SDS011;65503;48.534;9.062;2023-11-21T02:50:11;2.25;;;0.85;;
76610;SDS011;65503;48.534;9.062;2023-11-21T02:52:38;1.95;;;0.77;;
76610;SDS011;65503;48.534;9.062;2023-11-21T02:55:06;2.78;;;1.08;;
76610;SDS011;65503;48.534;9.062;2023-11-21T02:57:36;4.53;;;0.90;;
76610;SDS011;65503;48.534;9.062;2023-11-21T03:00:02;1.90;;;0.73;;
76610;SDS011;65503;48.534;9.062;2023-11-21T03:02:29;1.63;;;0.70;;
76610;SDS011;65503;48.534;9.062;2023-11-21T03:04:56;3.20;;;0.80;;
76610;SDS011;65503;48.534;9.062;2023-11-21T03:07:23;2.25;;;0.70;;
76610;SDS011;65503;48.534;9.062;2023-11-21T03:09:49;4.10;;;0.88;;
76610;SDS011;65503;48.534;9.062;2023-11-21T03:12:16;2.72;;;0.68;;
76610;SDS011;65503;48.534;9.062;2023-11-21T03:14:43;1.90;;;1.20;;
76610;SDS011;65503;48.534;9.062;2023-11-21T03:17:09;1.35;;;0.82;;
76610;SDS011;65503;48.534;9.062;2023-11-21T03:19:36;1.63;;;0.80;;
76610;SDS011;65503;48.534;9.062;2023-11-21T03:22:02;3.95;;;0.65;;
76610;SDS011;65503;48.534;9.062;2023-11-21T03:24:30;1.50;;;0.70;;
76610;SDS011;65503;48.534;9.062;2023-11-21T03:26:57;1.70;;;0.70;;
76610;SDS011;65503;48.534;9.062;2023-11-21T03:29:23;3.03;;;0.70;;
76610;SDS011;65503;48.534;9.062;2023-11-21T03:31:50;1.63;;;0.60;;
76610;SDS011;65503;48.534;9.062;2023-11-21T03:34:24;2.75;;;0.70;;
76610;SDS011;65503;48.534;9.062;2023-11-21T03:36:52;4.25;;;1.05;;
76610;SDS011;65503;48.534;9.062;2023-11-21T03:39:19;3.03;;;0.70;;
76610;SDS011;65503;48.534;9.062;2023-11-21T03:41:47;2.20;;;0.60;;
76610;SDS011;65503;48.534;9.062;2023-11-21T03:44:13;1.65;;;1.27;;
76610;SDS011;65503;48.534;9.062;2023-11-21T03:46:40;2.90;;;0.80;;
76610;SDS011;65503;48.534;9.062;2023-11-21T03:49:07;1.67;;;0.70;;
76610;SDS011;65503;48.534;9.062;2023-11-21T03:51:33;1.30;;;0.70;;
76610;SDS011;65503;48.534;9.062;2023-11-21T03:54:00;0.98;;;0.93;;
76610;SDS011;65503;48.534;9.062;2023-11-21T03:56:26;3.40;;;0.60;;
76610;SDS011;65503;48.534;9.062;2023-11-21T03:58:53;2.58;;;0.68;;
76610;SDS011;65503;48.534;9.062;2023-11-21T04:01:22;1.48;;;0.63;;
76610;SDS011;65503;48.534;9.062;2023-11-21T04:03:50;1.98;;;0.52;;
76610;SDS011;65503;48.534;9.062;2023-11-21T04:06:17;1.15;;;0.63;;
76610;SDS011;65503;48.534;9.062;2023-11-21T04:08:44;1.67;;;0.70;;
76610;SDS011;65503;48.534;9.062;2023-11-21T04:11:11;5.43;;;0.60;;
76610;SDS011;65503;48.534;9.062;2023-11-21T04:13:38;1.70;;;0.50;;
76610;SDS011;65503;48.534;9.062;2023-11-21T04:16:07;1.08;;;0.47;;
76610;SDS011;65503;48.534;9.062;2023-11-21T04:18:38;2.60;;;0.50;;
76610;SDS011;65503;48.534;9.062;2023-11-21T04:21:05;0.70;;;0.50;;
76610;SDS011;65503;48.534;9.062;2023-11-21T04:23:32;2.15;;;0.60;;
76610;SDS011;65503;48.534;9.062;2023-11-21T04:25:59;1.85;;;0.70;;
76610;SDS011;65503;48.534;9.062;2023-11-21T04:28:29;0.93;;;0.60;;
76610;SDS011;65503;48.534;9.062;2023-11-21T04:30:55;1.25;;;0.50;;
76610;SDS011;65503;48.534;9.062;2023-11-21T04:33:22;2.72;;;0.60;;
76610;SDS011;65503;48.534;9.062;2023-11-21T04:35:49;0.30;;;0.30;;
76610;SDS011;65503;48.534;9.062;2023-11-21T04:38:15;1.63;;;0.50;;
76610;SDS011;65503;48.534;9.062;2023-11-21T04:40:42;0.63;;;0.60;;
76610;SDS011;65503;48.534;9.062;2023-11-21T04:43:08;2.03;;;0.80;;
76610;SDS011;65503;48.534;9.062;2023-11-21T04:45:35;1.05;;;0.60;;
76610;SDS011;65503;48.534;9.062;2023-11-21T04:48:02;1.27;;;0.68;;
76610;SDS011;65503;48.534;9.062;2023-11-21T04:50:28;1.50;;;1.00;;
76610;SDS011;65503;48.534;9.062;2023-11-21T04:52:55;1.15;;;0.70;;
76610;SDS011;65503;48.534;9.062;2023-11-21T04:55:21;1.15;;;0.88;;
76610;SDS011;65503;48.534;9.062;2023-11-21T04:57:48;1.55;;;0.90;;
76610;SDS011;65503;48.534;9.062;2023-11-21T05:00:15;2.50;;;0.80;;
76610;SDS011;65503;48.534;9.062;2023-11-21T05:02:42;0.77;;;0.63;;
76610;SDS011;65503;48.534;9.062;2023-11-21T05:05:10;1.80;;;0.70;;
76610;SDS011;65503;48.534;9.062;2023-11-21T05:07:37;1.75;;;0.63;;
76610;SDS011;65503;48.534;9.062;2023-11-21T05:10:05;1.70;;;0.60;;
76610;SDS011;65503;48.534;9.062;2023-11-21T05:12:35;4.47;;;1.10;;
76610;SDS011;65503;48.534;9.062;2023-11-21T05:15:04;3.13;;;0.77;;
76610;SDS011;65503;48.534;9.062;2023-11-21T05:17:41;1.33;;;0.80;;
76610;SDS011;65503;48.534;9.062;2023-11-21T05:20:11;2.42;;;0.70;;
76610;SDS011;65503;48.534;9.062;2023-11-21T05:22:40;2.88;;;0.70;;
76610;SDS011;65503;48.534;9.062;2023-11-21T05:25:08;1.80;;;0.70;;
76610;SDS011;65503;48.534;9.062;2023-11-21T05:27:35;5.28;;;0.70;;
76610;SDS011;65503;48.534;9.062;2023-11-21T05:30:02;1.35;;;0.70;;
76610;SDS011;65503;48.534;9.062;2023-11-21T05:32:32;0.77;;;0.52;;
76610;SDS011;65503;48.534;9.062;2023-11-21T05:34:59;4.00;;;0.73;;
76610;SDS011;65503;48.534;9.062;2023-11-21T05:37:25;4.53;;;1.00;;
76610;SDS011;65503;48.534;9.062;2023-11-21T05:39:53;4.32;;;0.95;;
76610;SDS011;65503;48.534;9.062;2023-11-21T05:42:22;1.80;;;0.80;;
76610;SDS011;65503;48.534;9.062;2023-11-21T05:44:49;3.38;;;0.98;;
76610;SDS011;65503;48.534;9.062;2023-11-21T05:47:16;1.35;;;0.90;;
76610;SDS011;65503;48.534;9.062;2023-11-21T05:49:44;5.28;;;0.95;;
76610;SDS011;65503;48.534;9.062;2023-11-21T05:52:12;2.03;;;0.90;;
76610;SDS011;65503;48.534;9.062;2023-11-21T05:54:38;3.85;;;0.90;;
76610;SDS011;65503;48.534;9.062;2023-11-21T05:57:05;3.08;;;0.73;;
76610;SDS011;65503;48.534;9.062;2023-11-21T05:59:31;4.07;;;0.82;;
76610;SDS011;65503;48.534;9.062;2023-11-21T06:01:58;0.75;;;0.60;;
76610;SDS011;65503;48.534;9.062;2023-11-21T06:04:25;5.65;;;1.00;;
76610;SDS011;65503;48.534;9.062;2023-11-21T06:06:52;1.90;;;1.05;;
76610;SDS011;65503;48.534;9.062;2023-11-21T06:09:21;1.20;;;0.80;;
76610;SDS011;65503;48.534;9.062;2023-11-21T06:11:48;2.20;;;0.90;;
76610;SDS011;65503;48.534;9.062;2023-11-21T06:14:15;1.67;;;1.02;;
76610;SDS011;65503;48.534;9.062;2023-11-21T06:16:44;3.03;;;1.45;;
76610;SDS011;65503;48.534;9.062;2023-11-21T06:19:11;1.63;;;0.80;;
76610;SDS011;65503;48.534;9.062;2023-11-21T06:21:38;3.22;;;0.82;;
76610;SDS011;65503;48.534;9.062;2023-11-21T06:24:05;2.38;;;0.80;;
76610;SDS011;65503;48.534;9.062;2023-11-21T06:26:31;1.45;;;0.73;;
76610;SDS011;65503;48.534;9.062;2023-11-21T06:28:58;1.05;;;0.93;;
76610;SDS011;65503;48.534;9.062;2023-11-21T06:31:24;2.60;;;1.00;;
76610;SDS011;65503;48.534;9.062;2023-11-21T06:33:52;2.75;;;1.10;;
76610;SDS011;65503;48.534;9.062;2023-11-21T06:36:19;3.38;;;1.45;;
76610;SDS011;65503;48.534;9.062;2023-11-21T06:38:45;2.28;;;1.20;;
76610;SDS011;65503;48.534;9.062;2023-11-21T06:41:12;4.60;;;1.48;;
76610;SDS011;65503;48.534;9.062;2023-11-21T06:43:42;3.53;;;1.80;;
76610;SDS011;65503;48.534;9.062;2023-11-21T06:46:15;2.78;;;1.27;;
76610;SDS011;65503;48.534;9.062;2023-11-21T06:48:42;4.20;;;1.40;;
76610;SDS011;65503;48.534;9.062;2023-11-21T06:51:09;3.15;;;1.73;;
76610;SDS011;65503;48.534;9.062;2023-11-21T06:53:36;4.15;;;2.20;;
76610;SDS011;65503;48.534;9.062;2023-11-21T06:56:04;7.55;;;3.60;;
76610;SDS011;65503;48.534;9.062;2023-11-21T06:58:41;7.78;;;3.58;;
76610;SDS011;65503;48.534;9.062;2023-11-21T07:01:07;7.80;;;4.15;;
76610;SDS011;65503;48.534;9.062;2023-11-21T07:03:34;5.80;;;3.17;;
76610;SDS011;65503;48.534;9.062;2023-11-21T07:06:01;6.75;;;3.00;;
76610;SDS011;65503;48.534;9.062;2023-11-21T07:08:27;7.38;;;3.08;;
76610;SDS011;65503;48.534;9.062;2023-11-21T07:10:54;6.57;;;2.67;;
76610;SDS011;65503;48.534;9.062;2023-11-21T07:13:20;6.18;;;2.33;;
76610;SDS011;65503;48.534;9.062;2023-11-21T07:15:48;6.07;;;2.92;;
76610;SDS011;65503;48.534;9.062;2023-11-21T07:18:15;6.80;;;2.92;;
76610;SDS011;65503;48.534;9.062;2023-11-21T07:20:41;5.47;;;2.22;;
76610;SDS011;65503;48.534;9.062;2023-11-21T07:23:08;4.57;;;2.20;;
76610;SDS011;65503;48.534;9.062;2023-11-21T07:25:35;5.53;;;2.20;;
76610;SDS011;65503;48.534;9.062;2023-11-21T07:28:01;6.35;;;2.65;;
76610;SDS011;65503;48.534;9.062;2023-11-21T07:30:28;4.22;;;1.80;;
76610;SDS011;65503;48.534;9.062;2023-11-21T07:32:54;2.70;;;1.50;;
76610;SDS011;65503;48.534;9.062;2023-11-21T07:35:21;3.33;;;1.70;;
76610;SDS011;65503;48.534;9.062;2023-11-21T07:37:48;1.80;;;1.20;;
76610;SDS011;65503;48.534;9.062;2023-11-21T07:40:15;4.38;;;1.35;;
76610;SDS011;65503;48.534;9.062;2023-11-21T07:45:09;3.03;;;1.10;;
76610;SDS011;65503;48.534;9.062;2023-11-21T07:47:36;2.67;;;1.10;;
76610;SDS011;65503;48.534;9.062;2023-11-21T07:50:03;2.97;;;1.05;;
76610;SDS011;65503;48.534;9.062;2023-11-21T07:52:30;0.98;;;0.68;;
76610;SDS011;65503;48.534;9.062;2023-11-21T07:54:57;4.18;;;1.23;;
76610;SDS011;65503;48.534;9.062;2023-11-21T07:57:23;65.00;;;4.25;;
76610;SDS011;65503;48.534;9.062;2023-11-21T07:59:50;16.15;;;2.15;;
76610;SDS011;65503;48.534;9.062;2023-11-21T08:02:16;20.95;;;3.35;;
76610;SDS011;65503;48.534;9.062;2023-11-21T08:04:44;10.27;;;1.70;;
76610;SDS011;65503;48.534;9.062;2023-11-21T08:07:11;5.88;;;1.40;;
76610;SDS011;65503;48.534;9.062;2023-11-21T08:09:37;3.80;;;1.65;;
76610;SDS011;65503;48.534;9.062;2023-11-21T08:12:04;14.32;;;1.38;;
76610;SDS011;65503;48.534;9.062;2023-11-21T08:14:30;6.53;;;1.20;;
76610;SDS011;65503;48.534;9.062;2023-11-21T08:16:57;3.33;;;1.20;;
76610;SDS011;65503;48.534;9.062;2023-11-21T08:19:24;5.18;;;1.60;;
76610;SDS011;65503;48.534;9.062;2023-11-21T08:21:54;5.88;;;1.30;;
76610;SDS011;65503;48.534;9.062;2023-11-21T08:24:21;6.22;;;1.33;;
76610;SDS011;65503;48.534;9.062;2023-11-21T08:26:48;2.38;;;1.00;;
76610;SDS011;65503;48.534;9.062;2023-11-21T08:29:14;2.90;;;1.00;;
76610;SDS011;65503;48.534;9.062;2023-11-21T08:31:41;3.97;;;1.23;;
76610;SDS011;65503;48.534;9.062;2023-11-21T08:34:07;6.43;;;1.58;;
76610;SDS011;65503;48.534;9.062;2023-11-21T08:36:35;2.70;;;1.00;;
76610;SDS011;65503;48.534;9.062;2023-11-21T08:39:01;6.28;;;1.27;;
76610;SDS011;65503;48.534;9.062;2023-11-21T08:41:28;3.13;;;1.10;;
76610;SDS011;65503;48.534;9.062;2023-11-21T08:43:54;2.15;;;1.10;;
76610;SDS011;65503;48.534;9.062;2023-11-21T08:46:21;4.57;;;1.00;;
76610;SDS011;65503;48.534;9.062;2023-11-21T08:48:49;7.00;;;1.20;;
76610;SDS011;65503;48.534;9.062;2023-11-21T08:51:18;2.65;;;1.10;;
76610;SDS011;65503;48.534;9.062;2023-11-21T08:53:45;2.20;;;0.98;;
76610;SDS011;65503;48.534;9.062;2023-11-21T08:56:12;17.58;;;1.95;;
76610;SDS011;65503;48.534;9.062;2023-11-21T08:58:40;4.10;;;1.35;;
76610;SDS011;65503;48.534;9.062;2023-11-21T09:01:07;7.82;;;1.25;;
76610;SDS011;65503;48.534;9.062;2023-11-21T09:03:34;5.55;;;1.17;;
76610;SDS011;65503;48.534;9.062;2023-11-21T09:06:01;5.32;;;1.30;;
76610;SDS011;65503;48.534;9.062;2023-11-21T09:08:27;3.85;;;1.10;;
76610;SDS011;65503;48.534;9.062;2023-11-21T09:10:55;7.88;;;1.70;;
76610;SDS011;65503;48.534;9.062;2023-11-21T09:13:22;2.10;;;1.00;;
76610;SDS011;65503;48.534;9.062;2023-11-21T09:15:51;3.80;;;1.10;;
76610;SDS011;65503;48.534;9.062;2023-11-21T09:18:18;3.65;;;1.10;;
76610;SDS011;65503;48.534;9.062;2023-11-21T09:20:45;2.47;;;1.00;;
76610;SDS011;65503;48.534;9.062;2023-11-21T09:23:11;2.22;;;1.00;;
76610;SDS011;65503;48.534;9.062;2023-11-21T09:25:38;4.00;;;1.00;;
76610;SDS011;65503;48.534;9.062;2023-11-21T09:28:05;14.38;;;1.45;;
76610;SDS011;65503;48.534;9.062;2023-11-21T09:30:35;3.90;;;1.00;;
76610;SDS011;65503;48.534;9.062;2023-11-21T09:33:02;1.15;;;0.90;;
76610;SDS011;65503;48.534;9.062;2023-11-21T09:35:29;2.25;;;1.10;;
76610;SDS011;65503;48.534;9.062;2023-11-21T09:37:55;19.52;;;1.95;;
76610;SDS011;65503;48.534;9.062;2023-11-21T09:40:22;4.43;;;1.05;;
76610;SDS011;65503;48.534;9.062;2023-11-21T09:42:51;3.17;;;1.20;;
76610;SDS011;65503;48.534;9.062;2023-11-21T09:45:27;2.75;;;1.20;;
76610;SDS011;65503;48.534;9.062;2023-11-21T09:47:55;5.53;;;1.30;;
76610;SDS011;65503;48.534;9.062;2023-11-21T09:50:23;2.38;;;0.93;;
76610;SDS011;65503;48.534;9.062;2023-11-21T09:55:24;41.78;;;4.82;;
76610;SDS011;65503;48.534;9.062;2023-11-21T09:57:53;9.70;;;1.10;;
76610;SDS011;65503;48.534;9.062;2023-11-21T10:00:22;2.22;;;1.13;;
76610;SDS011;65503;48.534;9.062;2023-11-21T10:02:53;3.22;;;1.10;;
76610;SDS011;65503;48.534;9.062;2023-11-21T10:05:20;4.25;;;1.23;;
76610;SDS011;65503;48.534;9.062;2023-11-21T10:07:52;9.07;;;1.30;;
76610;SDS011;65503;48.534;9.062;2023-11-21T10:10:19;9.27;;;1.20;;
76610;SDS011;65503;48.534;9.062;2023-11-21T10:12:50;8.35;;;1.52;;
76610;SDS011;65503;48.534;9.062;2023-11-21T10:15:22;8.80;;;1.55;;
76610;SDS011;65503;48.534;9.062;2023-11-21T10:17:49;17.23;;;2.15;;
76610;SDS011;65503;48.534;9.062;2023-11-21T10:20:16;2.15;;;0.88;;
76610;SDS011;65503;48.534;9.062;2023-11-21T10:22:43;2.33;;;1.52;;
76610;SDS011;65503;48.534;9.062;2023-11-21T10:25:10;8.18;;;1.33;;
76610;SDS011;65503;48.534;9.062;2023-11-21T10:27:40;3.35;;;1.00;;
76610;SDS011;65503;48.534;9.062;2023-11-21T10:30:08;3.63;;;1.10;;
76610;SDS011;65503;48.534;9.062;2023-11-21T10:32:38;3.22;;;1.10;;
76610;SDS011;65503;48.534;9.062;2023-11-21T10:35:07;8.35;;;1.38;;
76610;SDS011;65503;48.534;9.062;2023-11-21T10:37:36;2.67;;;1.10;;
76610;SDS011;65503;48.534;9.062;2023-11-21T10:40:07;5.15;;;1.60;;
76610;SDS011;65503;48.534;9.062;2023-11-21T10:42:41;13.63;;;2.22;;
76610;SDS011;65503;48.534;9.062;2023-11-21T10:45:08;7.35;;;1.50;;
76610;SDS011;65503;48.534;9.062;2023-11-21T10:47:39;8.45;;;1.58;;
76610;SDS011;65503;48.534;9.062;2023-11-21T10:50:07;14.45;;;1.92;;
76610;SDS011;65503;48.534;9.062;2023-11-21T10:52:41;18.00;;;1.95;;
76610;SDS011;65503;48.534;9.062;2023-11-21T10:55:16;3.10;;;1.40;;
76610;SDS011;65503;48.534;9.062;2023-11-21T11:00:14;2.53;;;1.38;;
76610;SDS011;65503;48.534;9.062;2023-11-21T11:02:42;3.10;;;1.60;;
76610;SDS011;65503;48.534;9.062;2023-11-21T11:05:09;5.97;;;2.40;;
76610;SDS011;65503;48.534;9.062;2023-11-21T11:07:38;7.70;;;1.80;;
76610;SDS011;65503;48.534;9.062;2023-11-21T11:10:09;4.38;;;1.80;;
76610;SDS011;65503;48.534;9.062;2023-11-21T11:12:41;5.60;;;1.88;;
76610;SDS011;65503;48.534;9.062;2023-11-21T11:15:08;4.15;;;2.03;;
76610;SDS011;65503;48.534;9.062;2023-11-21T11:20:05;7.30;;;1.60;;
76610;SDS011;65503;48.534;9.062;2023-11-21T11:22:37;4.70;;;1.70;;
76610;SDS011;65503;48.534;9.062;2023-11-21T11:25:24;4.00;;;1.77;;
76610;SDS011;65503;48.534;9.062;2023-11-21T11:28:07;2.95;;;1.33;;
76610;SDS011;65503;48.534;9.062;2023-11-21T11:30:50;4.82;;;1.92;;
76610;SDS011;65503;48.534;9.062;2023-11-21T11:33:30;10.77;;;2.10;;
76610;SDS011;65503;48.534;9.062;2023-11-21T11:36:08;5.13;;;2.17;;
76610;SDS011;65503;48.534;9.062;2023-11-21T11:38:46;3.53;;;1.92;;
76610;SDS011;65503;48.534;9.062;2023-11-21T11:41:24;3.92;;;1.60;;
76610;SDS011;65503;48.534;9.062;2023-11-21T11:43:56;3.70;;;1.70;;
76610;SDS011;65503;48.534;9.062;2023-11-21T11:46:42;4.93;;;1.60;;
76610;SDS011;65503;48.534;9.062;2023-11-21T11:49:09;2.92;;;1.48;;
76610;SDS011;65503;48.534;9.062;2023-11-21T11:51:36;6.63;;;1.70;;
76610;SDS011;65503;48.534;9.062;2023-11-21T11:54:02;4.65;;;1.80;;
76610;SDS011;65503;48.534;9.062;2023-11-21T11:56:31;4.05;;;1.58;;
76610;SDS011;65503;48.534;9.062;2023-11-21T11:59:02;18.00;;;3.50;;
76610;SDS011;65503;48.534;9.062;2023-11-21T12:01:31;5.68;;;1.80;;
76610;SDS011;65503;48.534;9.062;2023-11-21T12:06:43;7.63;;;2.10;;
76610;SDS011;65503;48.534;9.062;2023-11-21T12:09:20;4.32;;;1.58;;
76610;SDS011;65503;48.534;9.062;2023-11-21T12:11:48;13.68;;;1.70;;
76610;SDS011;65503;48.534;9.062;2023-11-21T12:14:15;7.93;;;1.60;;
76610;SDS011;65503;48.534;9.062;2023-11-21T12:16:43;5.82;;;1.67;;
76610;SDS011;65503;48.534;9.062;2023-11-21T12:19:10;5.13;;;1.50;;
76610;SDS011;65503;48.534;9.062;2023-11-21T12:21:37;3.47;;;1.83;;
76610;SDS011;65503;48.534;9.062;2023-11-21T12:24:05;4.35;;;1.80;;
76610;SDS011;65503;48.534;9.062;2023-11-21T12:26:35;4.43;;;1.75;;
76610;SDS011;65503;48.534;9.062;2023-11-21T12:33:57;2.63;;;1.40;;
76610;SDS011;65503;48.534;9.062;2023-11-21T12:36:24;6.68;;;3.08;;
76610;SDS011;65503;48.534;9.062;2023-11-21T12:41:18;10.63;;;2.13;;
76610;SDS011;65503;48.534;9.062;2023-11-21T12:43:47;3.90;;;1.80;;
76610;SDS011;65503;48.534;9.062;2023-11-21T12:46:14;3.00;;;1.48;;
76610;SDS011;65503;48.534;9.062;2023-11-21T12:48:44;6.25;;;1.80;;
76610;SDS011;65503;48.534;9.062;2023-11-21T12:51:14;8.10;;;2.22;;
76610;SDS011;65503;48.534;9.062;2023-11-21T12:53:42;3.83;;;1.75;;
76610;SDS011;65503;48.534;9.062;2023-11-21T12:56:09;5.55;;;1.80;;
76610;SDS011;65503;48.534;9.062;2023-11-21T12:58:37;5.30;;;1.85;;
76610;SDS011;65503;48.534;9.062;2023-11-21T13:01:08;4.72;;;1.85;;
76610;SDS011;65503;48.534;9.062;2023-11-21T13:03:38;4.28;;;1.70;;
76610;SDS011;65503;48.534;9.062;2023-11-21T13:06:06;6.40;;;2.38;;
76610;SDS011;65503;48.534;9.062;2023-11-21T13:08:34;6.18;;;3.30;;
76610;SDS011;65503;48.534;9.062;2023-11-21T13:11:00;6.35;;;3.38;;
76610;SDS011;65503;48.534;9.062;2023-11-21T13:13:28;5.30;;;2.63;;
76610;SDS011;65503;48.534;9.062;2023-11-21T13:15:56;6.47;;;3.42;;
76610;SDS011;65503;48.534;9.062;2023-11-21T13:18:32;4.85;;;2.30;;
76610;SDS011;65503;48.534;9.062;2023-11-21T13:20:59;8.68;;;5.35;;
76610;SDS011;65503;48.534;9.062;2023-11-21T13:23:28;7.55;;;3.30;;
76610;SDS011;65503;48.534;9.062;2023-11-21T13:25:55;5.05;;;2.20;;
76610;SDS011;65503;48.534;9.062;2023-11-21T13:28:30;6.57;;;3.05;;
76610;SDS011;65503;48.534;9.062;2023-11-21T13:31:00;4.75;;;2.50;;
76610;SDS011;65503;48.534;9.062;2023-11-21T13:33:47;4.15;;;1.90;;
76610;SDS011;65503;48.534;9.062;2023-11-21T13:36:24;3.67;;;1.67;;
76610;SDS011;65503;48.534;9.062;2023-11-21T13:38:52;2.15;;;1.25;;
76610;SDS011;65503;48.534;9.062;2023-11-21T13:41:19;2.92;;;1.40;;
76610;SDS011;65503;48.534;9.062;2023-11-21T13:43:46;3.40;;;1.55;;
76610;SDS011;65503;48.534;9.062;2023-11-21T13:46:16;15.70;;;2.00;;
76610;SDS011;65503;48.534;9.062;2023-11-21T13:48:49;3.45;;;1.20;;
76610;SDS011;65503;48.534;9.062;2023-11-21T13:51:23;3.17;;;1.48;;
76610;SDS011;65503;48.534;9.062;2023-11-21T13:54:00;10.73;;;2.05;;
76610;SDS011;65503;48.534;9.062;2023-11-21T13:56:26;4.38;;;1.70;;
76610;SDS011;65503;48.534;9.062;2023-11-21T13:58:55;4.00;;;1.83;;
76610;SDS011;65503;48.534;9.062;2023-11-21T14:01:23;2.78;;;1.40;;
76610;SDS011;65503;48.534;9.062;2023-11-21T14:03:57;2.65;;;1.40;;
76610;SDS011;65503;48.534;9.062;2023-11-21T14:06:46;2.88;;;1.27;;
76610;SDS011;65503;48.534;9.062;2023-11-21T14:09:19;2.00;;;1.30;;
76610;SDS011;65503;48.534;9.062;2023-11-21T14:12:01;3.97;;;1.48;;
76610;SDS011;65503;48.534;9.062;2023-11-21T14:14:32;3.83;;;1.40;;
76610;SDS011;65503;48.534;9.062;2023-11-21T14:16:59;2.38;;;1.25;;
76610;SDS011;65503;48.534;9.062;2023-11-21T14:19:25;3.05;;;1.58;;
76610;SDS011;65503;48.534;9.062;2023-11-21T14:21:57;3.17;;;1.60;;
76610;SDS011;65503;48.534;9.062;2023-11-21T14:24:24;5.75;;;1.50;;
76610;SDS011;65503;48.534;9.062;2023-11-21T14:26:51;3.60;;;1.40;;
76610;SDS011;65503;48.534;9.062;2023-11-21T14:29:19;4.45;;;1.95;;
76610;SDS011;65503;48.534;9.062;2023-11-21T14:31:47;8.80;;;1.65;;
76610;SDS011;65503;48.534;9.062;2023-11-21T14:34:14;5.72;;;1.48;;
76610;SDS011;65503;48.534;9.062;2023-11-21T14:36:45;28.52;;;2.03;;
76610;SDS011;65503;48.534;9.062;2023-11-21T14:39:12;6.32;;;1.70;;
76610;SDS011;65503;48.534;9.062;2023-11-21T14:41:53;7.15;;;1.83;;
76610;SDS011;65503;48.534;9.062;2023-11-21T14:44:22;8.30;;;2.08;;
76610;SDS011;65503;48.534;9.062;2023-11-21T14:46:52;0.77;;;0.70;;
76610;SDS011;65503;48.534;9.062;2023-11-21T14:49:23;4.57;;;1.30;;
76610;SDS011;65503;48.534;9.062;2023-11-21T14:51:53;1.33;;;0.90;;
76610;SDS011;65503;48.534;9.062;2023-11-21T14:54:27;2.08;;;1.15;;
76610;SDS011;65503;48.534;9.062;2023-11-21T14:57:07;5.30;;;1.30;;
76610;SDS011;65503;48.534;9.062;2023-11-21T14:59:42;2.60;;;1.30;;
76610;SDS011;65503;48.534;9.062;2023-11-21T15:02:10;1.48;;;0.95;;
76610;SDS011;65503;48.534;9.062;2023-11-21T15:04:48;4.18;;;1.83;;
76610;SDS011;65503;48.534;9.062;2023-11-21T15:07:18;4.40;;;1.23;;
76610;SDS011;65503;48.534;9.062;2023-11-21T15:09:45;5.07;;;1.60;;
76610;SDS011;65503;48.534;9.062;2023-11-21T15:12:11;1.42;;;0.98;;
76610;SDS011;65503;48.534;9.062;2023-11-21T15:17:14;3.28;;;1.38;;
76610;SDS011;65503;48.534;9.062;2023-11-21T15:19:49;2.85;;;1.30;;